Agency Village, SD

8:39 PM CDT on August 27, 2014 (GMT -0500)
RAWS MARSHALL CO SD US | Change Station
CLOSE
Current Station
Personal Weather Station
Location: Lake City, SD
Elevation: 2009 ft
Nearby Weather Stations

Elev 2009 ft 45.80 °N, 97.45 °W | Updated 40 minutes ago

Mostly Cloudy
Mostly Cloudy
66 °F
Feels Like 66 °F
N
10
Wind Variable Wind from SE
Gusts 15.0 mph

Today
High -- | Low -- °F
--% Chance of Precip.
Yesterday
High -- | Low -- °F
Precip. -- in
6:43 AM 8:15 PM
Waxing Crescent, 6% visible
Pressure 30.11 in
Visibility 10.0 miles
Clouds Mostly Cloudy 6500 ft
Overcast 9000 ft
Dew Point 58 °F
Humidity 75%
Rainfall 0.00 in
Snow Depth Not available.
UV 0 out of 12
Pollen 9.50 out of 12
Air Quality Not available.
Flu Activity Not available.
METAR KETH 280136Z AUTO 11003KT 10SM BKN065 OVC090 18/16 A3011 RMK AO2

More Conditions Fewer Conditions

Pressure 30.11 in
Visibility 10.0 miles
Clouds Mostly Cloudy 6500 ft
Overcast 9000 ft
Dew Point 58 °F
Humidity 75%
Rainfall 0.00 in
Snow Depth Not available.
UV 0 out of 12
Pollen 9.50 out of 12
Air Quality Not available.
Flu Activity Not available.
METAR KETH 280136Z AUTO 11003KT 10SM BKN065 OVC090 18/16 A3011 RMK AO2

More Conditions Fewer Conditions

10-Day Weather Forecast

Almanac

Astronomy

Aug. 27, 2014 Rise Set
Actual Time 6:43 AM CDT 8:15 PM CDT
Civil Twilight 6:12 AM CDT 8:46 PM CDT
Nautical Twilight 5:34 AM CDT 9:23 PM CDT
Astronomical Twilight 4:53 AM CDT 10:04 PM CDT
Moon 8:48 AM CDT (8/27) 8:58 PM CDT (8/27)
Length of Visible Light 14h 34m
Length of Day
13h 31m
Tomorrow will be 3m 3s shorter.
Waxing Crescent, 6% of the Moon is Illuminated
Today
Waxing Crescent
Sep 2
First Quarter
Sep 8
Full
Sep 15
Last Quarter
Sep 24
New

Today's Extremes

State Highs State Lows

Community

WunderPhotos

Upload Photos

1,747,848 photos uploaded!

Nearby

Snow Depth

Station Depth Elevation
North Rapid Creek 0 in 6130 ft
Blind Park 1 in 6890 ft

Earthquake Activity

City Distance Mag. Time & Date
No recent earthquake activity has been reported nearby.
Minimum magnitude displayed is 2.5.

Coastal Water Temperatures

Place Temperature
No Stations Reporting

Nearby Weather Stations